Time;durP1;ratioP1;P1;durP2;ratioP2;P2;SDS_P1;SDS_P2;PMS_P1;PMS_P2;Temp;Humidity;BMP_temperature;BMP_pressure;BME280_temperature;BME280_humidity;BME280_pressure;Samples;Min_cycle;Max_cycle;Signal;HPM_P1;HPM_P2
2023/03/22 00:01:59;;;;;;;;;;;;;;;13.39;80.48;100017.94;7352030;19;19926;-66
2023/03/22 00:04:27;;;;;;;;;;;;;;;13.36;79.76;100005.91;7352218;19;19922;-63
2023/03/22 00:06:54;;;;;;;;;;;;;;;13.37;80.18;99998.81;7355523;19;19919;-63
2023/03/22 00:09:21;;;;;;;;;;;;;;;13.39;79.73;99989.69;7351752;19;19921;-63
2023/03/22 00:11:49;;;;;;;;;;;;;;;13.43;80.53;99987.47;7351493;19;19929;-63
2023/03/22 00:14:17;;;;;;;;;;;;;;;13.45;80.75;99980.19;7352956;19;19933;-64
2023/03/22 00:16:45;;;;;;;;;;;;;;;13.44;80.06;99981.19;7354387;19;20354;-64
2023/03/22 00:19:12;;;;;;;;;;;;;;;13.41;79.89;99977.09;7352903;19;19922;-64
2023/03/22 00:21:38;;;;;;;;;;;;;;;13.44;80.03;99981.19;7353366;19;19929;-68
2023/03/22 00:24:06;;;;;;;;;;;;;;;13.38;79.75;99969.56;7348850;19;20342;-64
2023/03/22 00:26:33;;;;;;;;;;;;;;;13.41;81.08;99973.66;7353178;19;20548;-63
2023/03/22 00:29:01;;;;;;;;;;;;;;;13.41;80.66;99958.59;7350134;19;19967;-63
2023/03/22 00:31:28;;;;;;;;;;;;;;;13.40;80.61;99967.56;7350362;19;19919;-64
2023/03/22 00:33:56;;;;;;;;;;;;;;;13.41;81.45;99957.81;7352899;19;20200;-63
2023/03/22 00:36:23;;;;;;;;;;;;;;;13.38;81.10;99956.34;7354342;19;19937;-64
2023/03/22 00:38:50;;;;;;;;;;;;;;;13.35;81.25;99943.53;7351512;19;19929;-64
2023/03/22 00:41:19;;;;;;;;;;;;;;;13.34;81.12;99949.00;7351288;19;19934;-64
2023/03/22 00:43:47;;;;;;;;;;;;;;;13.41;81.91;99926.09;7352616;19;19923;-63
2023/03/22 00:46:14;;;;;;;;;;;;;;;13.42;81.34;99933.00;7353432;19;19938;-63
2023/03/22 00:48:41;;;;;;;;;;;;;;;13.40;80.54;99938.47;7350412;19;19914;-64
2023/03/22 00:51:09;;;;;;;;;;;;;;;13.38;80.96;99922.00;7349785;19;19990;-63
2023/03/22 00:53:36;;;;;;;;;;;;;;;13.40;81.71;99916.53;7350473;19;19926;-63
2023/03/22 00:56:03;;;;;;;;;;;;;;;13.39;80.92;99901.69;7351467;19;19922;-63
2023/03/22 00:58:30;;;;;;;;;;;;;;;13.41;81.82;99907.59;7342090;19;19926;-65
2023/03/22 01:00:57;;;;;;;;;;;;;;;13.36;80.73;99897.59;7352172;19;19927;-63
2023/03/22 01:03:24;;;;;;;;;;;;;;;13.33;80.46;99883.94;7351584;19;19934;-64
2023/03/22 01:05:54;;;;;;;;;;;;;;;13.39;81.57;99867.31;7352793;19;19919;-64
2023/03/22 01:08:21;;;;;;;;;;;;;;;13.42;81.11;99861.63;7353433;19;20380;-63
2023/03/22 01:10:49;;;;;;;;;;;;;;;13.44;80.97;99871.03;7346615;19;20608;-65
2023/03/22 01:13:16;;;;;;;;;;;;;;;13.45;80.60;99864.72;7349000;19;19922;-63
2023/03/22 01:15:43;;;;;;;;;;;;;;;13.43;80.75;99848.25;7350984;19;19923;-64
2023/03/22 01:18:10;;;;;;;;;;;;;;;13.44;81.24;99833.19;7352660;19;20011;-64
2023/03/22 01:20:37;;;;;;;;;;;;;;;13.44;81.01;99841.13;7351226;19;19911;-64
2023/03/22 01:23:05;;;;;;;;;;;;;;;13.44;81.32;99826.09;7356818;19;20450;-63
2023/03/22 01:25:32;;;;;;;;;;;;;;;13.42;81.39;99838.69;7342806;19;19923;-64
2023/03/22 01:28:01;;;;;;;;;;;;;;;13.43;81.62;99836.84;7357924;19;19918;-63
2023/03/22 01:30:28;;;;;;;;;;;;;;;13.45;82.46;99832.19;7356836;19;20316;-64
2023/03/22 01:32:55;;;;;;;;;;;;;;;13.45;82.00;99832.19;7353663;19;20383;-64
2023/03/22 01:35:22;;;;;;;;;;;;;;;13.46;82.65;99833.84;7361826;19;19946;-64
2023/03/22 01:37:49;;;;;;;;;;;;;;;13.41;82.73;99830.97;7358514;19;19919;-63
2023/03/22 01:40:16;;;;;;;;;;;;;;;13.44;85.56;99827.91;7356603;19;20501;-64
2023/03/22 01:42:43;;;;;;;;;;;;;;;13.45;84.61;99821.63;7356979;19;19945;-64
2023/03/22 01:45:13;;;;;;;;;;;;;;;13.41;84.09;99818.53;7360986;19;19934;-63
2023/03/22 01:47:41;;;;;;;;;;;;;;;13.41;84.57;99812.47;7356338;19;20335;-63
2023/03/22 01:50:08;;;;;;;;;;;;;;;13.38;84.11;99810.19;7338880;19;19919;-63
2023/03/22 01:52:36;;;;;;;;;;;;;;;13.40;84.26;99795.78;7366509;19;19947;-65
2023/03/22 01:55:04;;;;;;;;;;;;;;;13.38;84.15;99792.53;7363178;19;19962;-68
2023/03/22 01:57:32;;;;;;;;;;;;;;;13.32;84.15;99789.84;7362453;19;19922;-63
2023/03/22 01:59:59;;;;;;;;;;;;;;;13.35;84.94;99795.56;7359379;19;20046;-63
2023/03/22 02:02:29;;;;;;;;;;;;;;;13.33;84.63;99787.00;7356271;19;19918;-64
2023/03/22 02:04:56;;;;;;;;;;;;;;;13.32;84.75;99769.53;7359083;19;19926;-64
2023/03/22 02:09:53;;;;;;;;;;;;;;;13.35;84.89;99779.72;7355257;19;20422;-63
2023/03/22 02:12:20;;;;;;;;;;;;;;;13.34;84.51;99767.50;7352952;19;21005;-64
2023/03/22 02:14:50;;;;;;;;;;;;;;;13.31;83.67;99748.59;7358797;19;19919;-64
2023/03/22 02:17:20;;;;;;;;;;;;;;;13.22;84.18;99756.69;7346364;19;19922;-64
2023/03/22 02:19:50;;;;;;;;;;;;;;;13.24;84.58;99752.03;7357848;19;20476;-64
2023/03/22 02:22:20;;;;;;;;;;;;;;;13.24;84.60;99757.31;7356166;19;20521;-64
2023/03/22 02:24:50;;;;;;;;;;;;;;;13.23;84.68;99747.75;7356561;19;19930;-62
2023/03/22 02:27:20;;;;;;;;;;;;;;;13.23;84.82;99747.75;7354597;19;19950;-63
2023/03/22 02:29:51;;;;;;;;;;;;;;;13.28;86.46;99726.84;7354824;19;20308;-64
2023/03/22 02:32:21;;;;;;;;;;;;;;;13.31;85.92;99732.75;7351250;19;20301;-64
2023/03/22 02:34:52;;;;;;;;;;;;;;;13.26;85.21;99728.84;7359693;19;19935;-63
2023/03/22 02:37:22;;;;;;;;;;;;;;;13.30;85.79;99726.66;7356011;19;20577;-63
2023/03/22 02:39:53;;;;;;;;;;;;;;;13.32;85.76;99718.50;7355196;19;20292;-65
2023/03/22 02:42:26;;;;;;;;;;;;;;;13.27;84.91;99717.28;7343227;19;19918;-62
2023/03/22 02:44:53;;;;;;;;;;;;;;;13.28;85.70;99712.81;7357405;19;19915;-63
2023/03/22 02:47:24;;;;;;;;;;;;;;;13.23;85.37;99700.19;7361982;19;19978;-63
2023/03/22 02:49:55;;;;;;;;;;;;;;;13.23;85.13;99689.63;7355963;19;20311;-64
2023/03/22 02:52:25;;;;;;;;;;;;;;;13.29;85.40;99706.53;7351802;19;20482;-63
2023/03/22 02:54:55;;;;;;;;;;;;;;;13.29;84.94;99693.31;7354596;19;19921;-65
2023/03/22 02:57:25;;;;;;;;;;;;;;;13.22;84.19;99703.03;7355437;19;20461;-64
2023/03/22 02:59:54;;;;;;;;;;;;;;;13.23;84.15;99684.34;7356523;19;20209;-64
2023/03/22 03:02:22;;;;;;;;;;;;;;;13.21;83.63;99694.28;7354311;19;19926;-64
2023/03/22 03:04:50;;;;;;;;;;;;;;;13.23;83.64;99683.53;7356837;19;19990;-63
2023/03/22 03:07:20;;;;;;;;;;;;;;;13.24;83.80;99687.81;7341221;19;19954;-64
2023/03/22 03:09:48;;;;;;;;;;;;;;;13.31;84.75;99679.91;7352296;19;20588;-63
2023/03/22 03:12:18;;;;;;;;;;;;;;;13.26;83.73;99678.66;7352082;19;19911;-63
2023/03/22 03:14:45;;;;;;;;;;;;;;;13.26;84.02;99665.44;7355618;19;20518;-64
2023/03/22 03:17:13;;;;;;;;;;;;;;;13.27;83.74;99666.25;7356927;19;19941;-62
2023/03/22 03:19:45;;;;;;;;;;;;;;;13.22;83.07;99660.75;7357977;19;20015;-65
2023/03/22 03:22:15;;;;;;;;;;;;;;;13.24;84.44;99651.66;7356926;19;19914;-63
2023/03/22 03:24:47;;;;;;;;;;;;;;;13.25;84.14;99647.19;7357990;19;19922;-64
2023/03/22 03:27:16;;;;;;;;;;;;;;;13.21;84.26;99640.63;7353651;19;19914;-64
2023/03/22 03:29:48;;;;;;;;;;;;;;;13.17;83.83;99645.50;7352064;19;19910;-63
2023/03/22 03:32:18;;;;;;;;;;;;;;;13.16;84.72;99643.06;7349926;19;20324;-64
2023/03/22 03:34:50;;;;;;;;;;;;;;;13.14;84.47;99651.22;7345036;19;19923;-63
2023/03/22 03:37:20;;;;;;;;;;;;;;;13.18;84.17;99635.78;7354889;19;19926;-63
2023/03/22 03:39:51;;;;;;;;;;;;;;;13.18;84.08;99638.41;7353029;19;20469;-62
2023/03/22 03:42:20;;;;;;;;;;;;;;;13.19;84.81;99640.88;7350186;19;19919;-64
2023/03/22 03:44:47;;;;;;;;;;;;;;;13.18;84.82;99652.44;7355206;19;19938;-64
2023/03/22 03:47:15;;;;;;;;;;;;;;;13.19;85.22;99638.22;7358234;19;19946;-63
2023/03/22 03:49:41;;;;;;;;;;;;;;;13.22;85.44;99635.16;7356940;19;19929;-63
2023/03/22 03:52:08;;;;;;;;;;;;;;;13.21;85.40;99632.72;7352303;19;19930;-64
2023/03/22 03:54:36;;;;;;;;;;;;;;;13.18;85.77;99622.56;7358125;19;20806;-64
2023/03/22 03:57:02;;;;;;;;;;;;;;;13.14;85.94;99632.72;7357281;19;19957;-64
2023/03/22 03:59:29;;;;;;;;;;;;;;;13.13;86.10;99625.81;7331630;19;19949;-64
2023/03/22 04:01:56;;;;;;;;;;;;;;;13.15;86.49;99618.50;7353416;19;19965;-63
2023/03/22 04:04:25;;;;;;;;;;;;;;;13.14;86.43;99616.88;7354514;19;19923;-63
2023/03/22 04:06:55;;;;;;;;;;;;;;;13.09;86.75;99615.81;7355455;19;19934;-63
2023/03/22 04:09:23;;;;;;;;;;;;;;;13.03;86.96;99613.97;7352490;19;19919;-65
2023/03/22 04:11:50;;;;;;;;;;;;;;;13.06;87.65;99618.81;7350513;19;19923;-64
2023/03/22 04:14:17;;;;;;;;;;;;;;;13.07;87.93;99623.09;7354886;19;19922;-63
2023/03/22 04:16:44;;;;;;;;;;;;;;;13.07;87.60;99612.53;7355799;19;19922;-65
2023/03/22 04:19:11;;;;;;;;;;;;;;;13.06;87.60;99600.34;7354110;19;19921;-64
2023/03/22 04:21:38;;;;;;;;;;;;;;;13.03;88.28;99616.59;7354523;19;19925;-64
2023/03/22 04:24:05;;;;;;;;;;;;;;;13.00;88.73;99612.53;7343723;19;19919;-64
2023/03/22 04:26:32;;;;;;;;;;;;;;;13.00;89.11;99612.53;7352542;19;19934;-64
2023/03/22 04:29:01;;;;;;;;;;;;;;;13.01;89.33;99622.06;7346036;19;19922;-64
2023/03/22 04:31:29;;;;;;;;;;;;;;;13.00;89.32;99619.66;7351118;19;19923;-63
2023/03/22 04:33:59;;;;;;;;;;;;;;;13.02;89.69;99614.97;7350997;19;19933;-64
2023/03/22 04:36:30;;;;;;;;;;;;;;;13.04;90.03;99618.22;7353948;19;19922;-63
2023/03/22 04:38:57;;;;;;;;;;;;;;;13.05;90.42;99625.97;7350656;19;20351;-64
2023/03/22 04:41:24;;;;;;;;;;;;;;;13.01;90.03;99606.22;7352289;19;19914;-63
2023/03/22 04:43:50;;;;;;;;;;;;;;;13.00;90.09;99603.81;7350445;19;19915;-65
2023/03/22 04:46:20;;;;;;;;;;;;;;;13.00;90.91;99615.19;7355236;19;19942;-63
2023/03/22 04:48:47;;;;;;;;;;;;;;;13.00;91.29;99599.34;7351333;19;19922;-65
2023/03/22 04:51:14;;;;;;;;;;;;;;;13.00;91.96;99617.00;7339134;19;20414;-64
2023/03/22 04:53:41;;;;;;;;;;;;;;;12.97;91.34;99610.28;7351565;19;20263;-64
2023/03/22 04:56:09;;;;;;;;;;;;;;;12.94;91.74;99609.88;7357547;19;20307;-64
2023/03/22 04:58:39;;;;;;;;;;;;;;;12.95;92.57;99612.31;7357782;19;19923;-64
2023/03/22 05:01:06;;;;;;;;;;;;;;;12.92;92.42;99609.25;7356565;19;19934;-64
2023/03/22 05:03:33;;;;;;;;;;;;;;;12.91;92.90;99613.72;7360368;19;19923;-65
2023/03/22 05:06:01;;;;;;;;;;;;;;;12.89;92.50;99610.47;7358130;19;20579;-64
2023/03/22 05:08:29;;;;;;;;;;;;;;;12.91;92.72;99610.25;7357748;19;19927;-63
2023/03/22 05:10:57;;;;;;;;;;;;;;;12.91;92.95;99618.16;7356684;19;20455;-63
2023/03/22 05:13:26;;;;;;;;;;;;;;;12.91;92.98;99612.88;7356878;19;21494;-63
2023/03/22 05:15:53;;;;;;;;;;;;;;;12.86;92.91;99616.94;7358904;19;19926;-63
2023/03/22 05:18:21;;;;;;;;;;;;;;;12.84;92.97;99603.16;7357849;19;20435;-63
2023/03/22 05:20:47;;;;;;;;;;;;;;;12.81;93.14;99608.81;7357229;19;20434;-63
2023/03/22 05:23:17;;;;;;;;;;;;;;;12.79;93.59;99612.66;7358262;19;20592;-64
2023/03/22 05:25:45;;;;;;;;;;;;;;;12.79;93.69;99608.19;7358197;19;19982;-64
2023/03/22 05:28:13;;;;;;;;;;;;;;;12.76;93.64;99610.41;7357997;19;19927;-64
2023/03/22 05:30:40;;;;;;;;;;;;;;;12.76;94.04;99613.84;7352234;19;21759;-63
2023/03/22 05:33:08;;;;;;;;;;;;;;;12.77;94.30;99615.50;7353993;19;20049;-65
2023/03/22 05:35:36;;;;;;;;;;;;;;;12.78;94.23;99611.84;7356091;19;19921;-63
2023/03/22 05:38:03;;;;;;;;;;;;;;;12.75;93.94;99609.59;7345137;19;19926;-65
2023/03/22 05:40:30;;;;;;;;;;;;;;;12.75;93.88;99614.03;7352934;19;19926;-64
2023/03/22 05:42:57;;;;;;;;;;;;;;;12.74;94.10;99613.25;7356864;19;20300;-64
2023/03/22 05:45:24;;;;;;;;;;;;;;;12.77;94.33;99610.22;7359529;19;19922;-64
2023/03/22 05:47:52;;;;;;;;;;;;;;;12.76;94.48;99615.69;7358985;19;20252;-64
2023/03/22 05:50:20;;;;;;;;;;;;;;;12.74;94.31;99609.81;7356060;19;19929;-63
2023/03/22 05:52:47;;;;;;;;;;;;;;;12.75;94.64;99614.03;7353210;19;19929;-64
2023/03/22 05:55:16;;;;;;;;;;;;;;;12.75;94.61;99617.50;7352364;19;19945;-64
2023/03/22 05:57:50;;;;;;;;;;;;;;;12.74;95.07;99621.19;7354328;19;20854;-64
2023/03/22 06:00:17;;;;;;;;;;;;;;;12.75;94.95;99616.69;7354777;19;20583;-64
2023/03/22 06:02:46;;;;;;;;;;;;;;;12.77;94.80;99619.94;7341644;19;19930;-65
2023/03/22 06:05:13;;;;;;;;;;;;;;;12.74;95.01;99613.25;7357030;19;19918;-63
2023/03/22 06:07:41;;;;;;;;;;;;;;;12.74;95.44;99618.53;7355404;19;20645;-63
2023/03/22 06:10:10;;;;;;;;;;;;;;;12.74;95.60;99618.53;7355773;19;19990;-63
2023/03/22 06:12:37;;;;;;;;;;;;;;;12.67;95.17;99615.03;7354091;19;20014;-65
2023/03/22 06:15:04;;;;;;;;;;;;;;;12.69;95.76;99614.84;7357558;19;19911;-63
2023/03/22 06:17:31;;;;;;;;;;;;;;;12.70;96.24;99613.81;7356455;19;19914;-65
2023/03/22 06:19:58;;;;;;;;;;;;;;;12.74;96.83;99607.16;7356840;19;19915;-65
2023/03/22 06:22:25;;;;;;;;;;;;;;;12.78;97.69;99606.56;7352497;19;19919;-68
2023/03/22 06:24:52;;;;;;;;;;;;;;;12.75;96.96;99609.59;7355867;19;20291;-63
2023/03/22 06:27:19;;;;;;;;;;;;;;;12.72;96.82;99610.00;7359160;19;19919;-64
2023/03/22 06:29:49;;;;;;;;;;;;;;;12.77;97.32;99618.13;7351350;19;19922;-63
2023/03/22 06:32:16;;;;;;;;;;;;;;;12.77;97.22;99601.47;7350803;19;19914;-63
2023/03/22 06:34:43;;;;;;;;;;;;;;;12.79;97.24;99610.03;7357504;19;19953;-64
2023/03/22 06:37:10;;;;;;;;;;;;;;;12.74;96.73;99596.59;7358820;19;20495;-64
2023/03/22 06:39:37;;;;;;;;;;;;;;;12.74;96.91;99609.81;7352773;19;20501;-64
2023/03/22 06:42:04;;;;;;;;;;;;;;;12.77;97.62;99599.66;7354936;19;19929;-64
2023/03/22 06:44:31;;;;;;;;;;;;;;;12.80;97.92;99609.81;7356660;19;20597;-65
2023/03/22 06:46:58;;;;;;;;;;;;;;;12.78;97.02;99595.19;7355832;19;19915;-64
2023/03/22 06:49:26;;;;;;;;;;;;;;;12.79;96.61;99591.53;7355450;19;19915;-64
2023/03/22 06:51:53;;;;;;;;;;;;;;;12.85;97.27;99591.56;7356551;19;19915;-64
2023/03/22 06:54:20;;;;;;;;;;;;;;;12.90;97.57;99577.75;7353446;19;19922;-64
2023/03/22 06:56:47;;;;;;;;;;;;;;;12.90;97.33;99579.59;7342249;19;19937;-63
2023/03/22 06:59:14;;;;;;;;;;;;;;;12.89;96.49;99573.50;7354323;19;19918;-65
2023/03/22 07:01:41;;;;;;;;;;;;;;;12.89;96.27;99554.22;7355294;19;19914;-64
2023/03/22 07:04:08;;;;;;;;;;;;;;;12.92;96.09;99525.56;7353939;19;19952;-63
2023/03/22 07:06:35;;;;;;;;;;;;;;;12.96;96.73;99520.69;7357919;19;19923;-65
2023/03/22 07:09:02;;;;;;;;;;;;;;;13.01;96.76;99547.31;7353289;19;20243;-63
2023/03/22 07:11:29;;;;;;;;;;;;;;;13.05;96.93;99540.66;7350875;19;19919;-64
2023/03/22 07:13:56;;;;;;;;;;;;;;;13.08;96.19;99562.16;7351365;19;19923;-64
2023/03/22 07:16:23;;;;;;;;;;;;;;;13.07;95.40;99584.31;7356368;19;20711;-64
2023/03/22 07:18:50;;;;;;;;;;;;;;;13.08;95.16;99533.13;7350364;19;20581;-64
2023/03/22 07:21:17;;;;;;;;;;;;;;;13.10;94.96;99546.13;7341229;19;19915;-63
2023/03/22 07:23:44;;;;;;;;;;;;;;;13.10;94.59;99585.75;7353790;19;19918;-65
2023/03/22 07:26:12;;;;;;;;;;;;;;;13.11;94.76;99592.63;7355533;19;20430;-64
2023/03/22 07:28:43;;;;;;;;;;;;;;;13.10;94.06;99596.31;7352990;19;20473;-63
2023/03/22 07:31:10;;;;;;;;;;;;;;;13.08;94.45;99598.31;7350344;19;19959;-65
2023/03/22 07:33:38;;;;;;;;;;;;;;;13.10;94.62;99598.97;7348912;19;20340;-64
2023/03/22 07:36:05;;;;;;;;;;;;;;;13.09;94.50;99598.13;7355891;19;19919;-65
2023/03/22 07:38:33;;;;;;;;;;;;;;;13.08;94.44;99606.25;7350868;19;19929;-64
2023/03/22 07:41:00;;;;;;;;;;;;;;;13.10;94.65;99607.69;7350995;19;20138;-65
2023/03/22 07:43:27;;;;;;;;;;;;;;;13.12;94.49;99613.59;7353365;19;20232;-64
2023/03/22 07:45:54;;;;;;;;;;;;;;;13.12;94.72;99604.88;7354808;19;19922;-64
2023/03/22 07:48:21;;;;;;;;;;;;;;;13.12;94.87;99610.97;7357915;19;19918;-65
2023/03/22 07:50:49;;;;;;;;;;;;;;;13.16;94.95;99622.75;7360741;19;19915;-64
2023/03/22 07:53:16;;;;;;;;;;;;;;;13.21;96.06;99622.16;7360709;19;20515;-64
2023/03/22 07:55:43;;;;;;;;;;;;;;;13.25;95.45;99629.50;7358932;19;19942;-65
2023/03/22 07:58:09;;;;;;;;;;;;;;;13.31;95.65;99627.88;7360949;19;19923;-65
2023/03/22 08:00:36;;;;;;;;;;;;;;;13.26;94.38;99627.66;7357130;19;19923;-63
2023/03/22 08:03:04;;;;;;;;;;;;;;;13.26;94.77;99620.53;7357881;19;19915;-63
2023/03/22 08:05:31;;;;;;;;;;;;;;;13.34;95.60;99608.16;7357616;19;19926;-64
2023/03/22 08:07:58;;;;;;;;;;;;;;;13.37;95.05;99615.69;7359129;19;19923;-64
2023/03/22 08:10:25;;;;;;;;;;;;;;;13.36;94.56;99620.16;7358747;19;19939;-63
2023/03/22 08:12:52;;;;;;;;;;;;;;;13.41;95.41;99616.94;7357586;19;19919;-63
2023/03/22 08:15:19;;;;;;;;;;;;;;;13.43;95.09;99614.88;7357187;19;20370;-63
2023/03/22 08:17:48;;;;;;;;;;;;;;;13.41;94.37;99628.28;7359711;19;20121;-62
2023/03/22 08:20:17;;;;;;;;;;;;;;;13.43;95.23;99623.63;7358115;19;20275;-64
2023/03/22 08:22:44;;;;;;;;;;;;;;;13.49;95.85;99614.91;7359378;19;19918;-63
2023/03/22 08:25:11;;;;;;;;;;;;;;;13.51;95.58;99625.28;7355875;19;19923;-64
2023/03/22 08:27:38;;;;;;;;;;;;;;;13.54;95.63;99630.97;7360186;19;19927;-64
2023/03/22 08:30:06;;;;;;;;;;;;;;;13.54;95.76;99630.97;7358297;19;19945;-64
2023/03/22 08:32:33;;;;;;;;;;;;;;;13.50;95.89;99631.56;7357521;19;19938;-65
2023/03/22 08:35:00;;;;;;;;;;;;;;;13.46;95.76;99625.06;7358970;19;19911;-64
2023/03/22 08:37:27;;;;;;;;;;;;;;;13.46;95.94;99623.22;7358631;19;19987;-63
2023/03/22 08:39:55;;;;;;;;;;;;;;;13.51;95.99;99614.72;7356957;19;19914;-63
2023/03/22 08:42:22;;;;;;;;;;;;;;;13.57;96.69;99621.81;7358371;19;19926;-63
2023/03/22 08:44:50;;;;;;;;;;;;;;;13.64;96.85;99612.06;7359229;19;19960;-64
2023/03/22 08:47:18;;;;;;;;;;;;;;;13.69;96.90;99613.09;7358130;19;19918;-64
2023/03/22 08:49:45;;;;;;;;;;;;;;;13.65;96.40;99625.09;7358584;19;20129;-63
2023/03/22 08:52:12;;;;;;;;;;;;;;;13.63;96.34;99621.81;7352890;19;19919;-64
2023/03/22 08:54:39;;;;;;;;;;;;;;;13.63;96.32;99634.22;7341103;19;19919;-63
2023/03/22 08:57:08;;;;;;;;;;;;;;;13.62;96.70;99635.22;7351720;19;20309;-64
2023/03/22 08:59:35;;;;;;;;;;;;;;;13.64;97.38;99639.31;7351125;19;19922;-64
2023/03/22 09:02:03;;;;;;;;;;;;;;;13.59;97.23;99640.94;7350281;19;20308;-63
2023/03/22 09:04:31;;;;;;;;;;;;;;;13.54;96.98;99646.00;7352863;19;19919;-64
2023/03/22 09:06:58;;;;;;;;;;;;;;;13.54;97.87;99646.00;7354245;19;19926;-67
2023/03/22 09:09:25;;;;;;;;;;;;;;;13.60;98.32;99653.13;7350587;19;20018;-64
2023/03/22 09:11:52;;;;;;;;;;;;;;;13.64;98.75;99655.19;7351562;19;19927;-64
2023/03/22 09:14:18;;;;;;;;;;;;;;;13.67;98.97;99652.13;7349482;19;20557;-63
2023/03/22 09:16:46;;;;;;;;;;;;;;;13.65;98.59;99661.28;7352853;19;19982;-66
2023/03/22 09:19:13;;;;;;;;;;;;;;;13.61;98.27;99662.69;7349738;19;19923;-63
2023/03/22 09:21:40;;;;;;;;;;;;;;;13.63;98.52;99658.00;7355850;19;20489;-63
2023/03/22 09:24:07;;;;;;;;;;;;;;;13.65;98.73;99654.16;7350263;19;20297;-62
2023/03/22 09:26:35;;;;;;;;;;;;;;;13.76;99.36;99658.03;7351353;19;20470;-63
2023/03/22 09:29:03;;;;;;;;;;;;;;;13.83;98.81;99666.78;7351679;19;20010;-63
2023/03/22 09:31:30;;;;;;;;;;;;;;;13.89;98.15;99667.81;7346024;19;19918;-64
2023/03/22 09:33:57;;;;;;;;;;;;;;;14.01;98.11;99653.78;7335322;19;20663;-65
2023/03/22 09:36:25;;;;;;;;;;;;;;;14.14;98.05;99653.75;7323498;19;21281;-64
2023/03/22 09:38:52;;;;;;;;;;;;;;;14.23;97.02;99645.59;7351579;19;20545;-63
2023/03/22 09:41:20;;;;;;;;;;;;;;;14.34;96.40;99655.56;7353342;19;19915;-64
2023/03/22 09:43:50;;;;;;;;;;;;;;;14.45;96.39;99649.66;7342176;19;19926;-64
2023/03/22 09:46:22;;;;;;;;;;;;;;;14.55;95.24;99652.69;7358663;19;19926;-62
2023/03/22 09:48:50;;;;;;;;;;;;;;;14.58;94.39;99656.78;7359514;19;20256;-63
2023/03/22 09:51:25;;;;;;;;;;;;;;;14.70;94.85;99660.41;7358840;19;20019;-63
2023/03/22 09:53:53;;;;;;;;;;;;;;;14.81;94.19;99665.88;7356355;19;19926;-64
2023/03/22 09:56:23;;;;;;;;;;;;;;;14.83;93.18;99663.03;7355333;19;19910;-63
2023/03/22 09:58:55;;;;;;;;;;;;;;;14.85;92.93;99664.41;7337464;19;19935;-63
2023/03/22 10:01:26;;;;;;;;;;;;;;;14.78;92.00;99663.63;7347827;19;19911;-64
2023/03/22 10:03:55;;;;;;;;;;;;;;;14.74;91.90;99661.59;7357266;19;19915;-64
2023/03/22 10:06:25;;;;;;;;;;;;;;;14.76;92.49;99660.38;7357142;19;21083;-64
2023/03/22 10:08:56;;;;;;;;;;;;;;;14.76;91.92;99655.09;7344007;19;19923;-64
2023/03/22 10:11:25;;;;;;;;;;;;;;;14.78;91.88;99657.53;7349779;19;19931;-64
2023/03/22 10:13:55;;;;;;;;;;;;;;;14.76;91.27;99659.56;7358189;19;20235;-66
2023/03/22 10:16:25;;;;;;;;;;;;;;;14.76;91.17;99647.16;7358792;19;20375;-64
2023/03/22 10:18:55;;;;;;;;;;;;;;;14.70;90.39;99665.69;7356923;19;19949;-64
2023/03/22 10:21:23;;;;;;;;;;;;;;;14.60;90.19;99655.53;7356485;19;19953;-63
2023/03/22 10:23:55;;;;;;;;;;;;;;;14.57;90.73;99666.56;7357527;19;19927;-64
2023/03/22 10:26:28;;;;;;;;;;;;;;;14.59;91.38;99661.84;7360023;19;19926;-65
2023/03/22 10:28:58;;;;;;;;;;;;;;;14.63;90.90;99655.13;7359632;19;19933;-63
2023/03/22 10:31:29;;;;;;;;;;;;;;;14.61;90.66;99670.41;7358889;19;19927;-63
2023/03/22 10:33:58;;;;;;;;;;;;;;;14.61;90.63;99670.41;7356328;19;19930;-63
2023/03/22 10:36:29;;;;;;;;;;;;;;;14.63;89.96;99668.34;7358833;19;20425;-63
2023/03/22 10:39:00;;;;;;;;;;;;;;;14.68;90.51;99671.19;7358033;19;20185;-63
2023/03/22 10:41:28;;;;;;;;;;;;;;;14.75;89.18;99687.88;7350038;19;19926;-63
2023/03/22 10:43:57;;;;;;;;;;;;;;;14.76;89.36;99670.16;7357741;19;19923;-63
2023/03/22 10:46:27;;;;;;;;;;;;;;;14.84;90.17;99661.97;7357813;19;19922;-63
2023/03/22 10:48:57;;;;;;;;;;;;;;;14.94;89.90;99663.16;7359098;19;19937;-62
2023/03/22 10:51:27;;;;;;;;;;;;;;;15.04;88.95;99667.19;7357306;19;20312;-62
2023/03/22 10:53:57;;;;;;;;;;;;;;;15.16;87.91;99668.97;7353669;19;19923;-64
2023/03/22 10:56:24;;;;;;;;;;;;;;;15.30;87.01;99664.41;7349303;19;19978;-63
2023/03/22 10:58:53;;;;;;;;;;;;;;;15.45;86.50;99669.44;7358803;19;19919;-63
2023/03/22 11:01:24;;;;;;;;;;;;;;;15.59;85.31;99671.03;7357163;19;21107;-64
2023/03/22 11:03:54;;;;;;;;;;;;;;;15.73;83.08;99665.41;7356019;19;20156;-63
2023/03/22 11:06:24;;;;;;;;;;;;;;;15.82;81.48;99671.25;7361408;19;20283;-64
2023/03/22 11:08:56;;;;;;;;;;;;;;;15.81;77.35;99664.34;7357051;19;19918;-63
2023/03/22 11:11:26;;;;;;;;;;;;;;;15.83;77.33;99662.28;7354857;19;19927;-63
2023/03/22 11:14:01;;;;;;;;;;;;;;;15.86;76.48;99655.72;7355363;19;19918;-63
2023/03/22 11:16:29;;;;;;;;;;;;;;;15.93;76.68;99659.97;7355956;19;19962;-64
2023/03/22 11:19:00;;;;;;;;;;;;;;;15.92;75.61;99660.97;7356730;19;20280;-64
2023/03/22 11:21:29;;;;;;;;;;;;;;;16.02;74.92;99656.00;7359426;19;19930;-63
2023/03/22 11:24:00;;;;;;;;;;;;;;;16.08;76.53;99652.50;7355897;19;19926;-63
2023/03/22 11:26:29;;;;;;;;;;;;;;;16.10;75.40;99676.16;7354444;19;19923;-63
2023/03/22 11:29:01;;;;;;;;;;;;;;;16.01;74.02;99670.28;7356452;19;19931;-64
2023/03/22 11:31:46;;;;;;;;;;;;;;;16.05;74.73;99673.34;7358614;19;19919;-63
2023/03/22 11:34:16;;;;;;;;;;;;;;;16.11;74.12;99667.16;7353313;19;19919;-64
2023/03/22 11:36:44;;;;;;;;;;;;;;;16.17;74.17;99656.47;7357479;19;19926;-64
2023/03/22 11:39:14;;;;;;;;;;;;;;;16.24;73.56;99649.28;7354232;19;20239;-65
2023/03/22 11:41:44;;;;;;;;;;;;;;;16.27;73.79;99632.91;7356789;19;20488;-63
2023/03/22 11:44:12;;;;;;;;;;;;;;;16.26;72.95;99639.25;7354545;19;21492;-64
2023/03/22 11:46:47;;;;;;;;;;;;;;;16.23;72.75;99639.69;7353967;19;20347;-63
2023/03/22 11:49:16;;;;;;;;;;;;;;;16.27;72.42;99640.88;7359442;19;19923;-63
2023/03/22 11:51:44;;;;;;;;;;;;;;;16.31;71.96;99641.22;7355389;19;19944;-63
2023/03/22 11:54:15;;;;;;;;;;;;;;;16.36;73.13;99646.69;7352202;19;19987;-65
2023/03/22 11:56:44;;;;;;;;;;;;;;;16.44;72.76;99648.28;7354224;19;19919;-64
2023/03/22 11:59:12;;;;;;;;;;;;;;;16.47;72.56;99639.84;7352675;19;20353;-62
2023/03/22 12:01:43;;;;;;;;;;;;;;;16.56;73.38;99644.66;7354458;19;19930;-64
2023/03/22 12:04:13;;;;;;;;;;;;;;;16.67;73.72;99633.31;7355435;19;20330;-63
2023/03/22 12:06:41;;;;;;;;;;;;;;;16.73;72.45;99636.94;7353370;19;19931;-63
2023/03/22 12:09:16;;;;;;;;;;;;;;;16.76;72.34;99627.72;7350770;19;19922;-63
2023/03/22 12:11:46;;;;;;;;;;;;;;;16.80;72.25;99629.72;7359359;19;19922;-63
2023/03/22 12:14:14;;;;;;;;;;;;;;;16.79;72.75;99628.09;7358538;19;19915;-65
2023/03/22 12:16:44;;;;;;;;;;;;;;;16.85;73.39;99629.84;7360269;19;20071;-64
2023/03/22 12:19:18;;;;;;;;;;;;;;;16.89;73.74;99632.88;7359525;19;20029;-64
2023/03/22 12:21:47;;;;;;;;;;;;;;;16.91;73.14;99636.13;7362163;19;19922;-63
2023/03/22 12:24:23;;;;;;;;;;;;;;;16.92;73.50;99616.47;7357370;19;19926;-64
2023/03/22 12:26:53;;;;;;;;;;;;;;;16.91;73.61;99615.69;7359304;19;20216;-63
2023/03/22 12:29:20;;;;;;;;;;;;;;;16.96;74.50;99621.13;7360833;19;20582;-64
2023/03/22 12:31:55;;;;;;;;;;;;;;;16.99;74.09;99622.53;7358844;19;19940;-63
2023/03/22 12:34:28;;;;;;;;;;;;;;;16.98;73.04;99620.88;7360171;19;20353;-63
2023/03/22 12:36:56;;;;;;;;;;;;;;;16.99;72.93;99619.88;7357662;19;20028;-64
2023/03/22 12:39:23;;;;;;;;;;;;;;;16.99;72.39;99618.03;7359289;19;19923;-65
2023/03/22 12:41:52;;;;;;;;;;;;;;;16.96;72.73;99618.47;7357798;19;19923;-65
2023/03/22 12:44:21;;;;;;;;;;;;;;;16.94;74.02;99612.56;7357411;19;20415;-64
2023/03/22 12:46:52;;;;;;;;;;;;;;;16.88;71.84;99613.47;7357470;19;19927;-64
2023/03/22 12:49:20;;;;;;;;;;;;;;;16.91;73.14;99618.34;7356329;19;19941;-62
2023/03/22 12:51:49;;;;;;;;;;;;;;;16.94;72.87;99623.19;7356798;19;19919;-64
2023/03/22 12:54:18;;;;;;;;;;;;;;;16.91;72.42;99634.28;7355619;19;19922;-62
2023/03/22 12:56:45;;;;;;;;;;;;;;;16.91;73.02;99621.00;7357139;19;19930;-66